Time;durP1;ratioP1;P1;durP2;ratioP2;P2;SDS_P1;SDS_P2;PMS_P1;PMS_P2;Temp;Humidity;BMP_temperature;BMP_pressure;BME280_temperature;BME280_humidity;BME280_pressure;Samples;Min_cycle;Max_cycle;Signal;HPM_P1;HPM_P2
2024/03/08 00:00:14;;;;;;;29.10;14.20;;;;;;;-6.50;100.00;100952.73;109533;1251;59242;-54
2024/03/08 00:02:45;;;;;;;28.90;15.20;;;;;;;-6.43;100.00;100949.95;109415;1254;74706;-55
2024/03/08 00:05:14;;;;;;;39.30;19.00;;;;;;;-6.38;100.00;100950.42;109544;1251;67461;-54
2024/03/08 00:07:41;;;;;;;54.80;28.60;;;;;;;-6.34;100.00;100953.31;109495;1251;71369;-53
2024/03/08 00:10:11;;;;;;;67.40;33.30;;;;;;;-6.32;100.00;100949.87;109474;1251;59294;-55
2024/03/08 00:12:44;;;;;;;73.50;36.90;;;;;;;-6.35;100.00;100951.34;109484;1250;60088;-56
2024/03/08 00:15:16;;;;;;;73.90;41.50;;;;;;;-6.39;100.00;100947.59;109485;1251;74708;-54
2024/03/08 00:17:46;;;;;;;68.80;36.30;;;;;;;-6.43;100.00;100946.39;109525;1250;67497;-53
2024/03/08 00:20:17;;;;;;;61.30;32.20;;;;;;;-6.48;100.00;100943.52;109488;1251;71793;-56
2024/03/08 00:22:46;;;;;;;63.20;32.20;;;;;;;-6.53;100.00;100944.04;109459;1251;60146;-54
2024/03/08 00:25:14;;;;;;;68.30;32.90;;;;;;;-6.59;100.00;100943.77;109484;1251;60109;-54
2024/03/08 00:27:42;;;;;;;73.50;37.60;;;;;;;-6.63;100.00;100945.59;109504;1251;73427;-53
2024/03/08 00:30:12;;;;;;;65.90;34.30;;;;;;;-6.64;100.00;100946.48;109467;1251;66925;-59
2024/03/08 00:32:40;;;;;;;79.30;39.70;;;;;;;-6.66;100.00;100949.60;109451;1251;72682;-55
2024/03/08 00:35:08;;;;;;;97.30;49.70;;;;;;;-6.68;100.00;100945.44;109463;1251;60019;-54
2024/03/08 00:37:36;;;;;;;100.50;49.20;;;;;;;-6.69;100.00;100943.63;109498;1251;60181;-54
2024/03/08 00:40:08;;;;;;;81.40;40.70;;;;;;;-6.67;100.00;100944.73;109431;1251;74598;-55
2024/03/08 00:42:38;;;;;;;71.80;33.40;;;;;;;-6.66;100.00;100944.68;109451;1251;66966;-54
2024/03/08 00:45:06;;;;;;;66.10;30.80;;;;;;;-6.65;100.00;100941.27;109420;1254;71008;-54
2024/03/08 00:47:33;;;;;;;60.80;29.70;;;;;;;-6.63;100.00;100942.04;109434;1251;59310;-54
2024/03/08 00:50:03;;;;;;;61.00;32.10;;;;;;;-6.61;100.00;100941.64;109459;1251;60067;-59
2024/03/08 00:52:31;;;;;;;63.90;32.90;;;;;;;-6.63;100.00;100936.64;109504;1251;74703;-54
2024/03/08 00:54:59;;;;;;;62.50;31.80;;;;;;;-6.67;100.00;100934.76;109493;1250;66857;-54
2024/03/08 00:57:27;;;;;;;63.70;30.70;;;;;;;-6.70;100.00;100932.15;109443;1251;73056;-54
2024/03/08 00:59:56;;;;;;;61.70;29.30;;;;;;;-6.77;100.00;100935.30;109426;1251;60300;-55
2024/03/08 01:02:23;;;;;;;58.10;28.00;;;;;;;-6.89;100.00;100929.66;109481;1251;60067;-54
2024/03/08 01:04:51;;;;;;;58.30;26.40;;;;;;;-7.03;100.00;100927.10;109521;1251;73564;-54
2024/03/08 01:07:19;;;;;;;71.50;33.40;;;;;;;-7.14;100.00;100923.95;109536;1251;66982;-54
2024/03/08 01:09:47;;;;;;;76.50;33.50;;;;;;;-7.23;100.00;100923.60;109421;1251;73031;-55
2024/03/08 01:12:14;;;;;;;61.20;30.20;;;;;;;-7.29;100.00;100924.82;109470;1251;61086;-54
2024/03/08 01:14:42;;;;;;;59.30;28.80;;;;;;;-7.34;100.00;100924.83;109519;1251;60094;-54
2024/03/08 01:17:11;;;;;;;54.80;27.70;;;;;;;-7.38;100.00;100922.26;109439;1250;74485;-55
2024/03/08 01:19:39;;;;;;;62.70;28.10;;;;;;;-7.42;100.00;100916.63;109496;1251;67393;-55
2024/03/08 01:22:07;;;;;;;59.90;29.40;;;;;;;-7.44;100.00;100916.72;109406;1251;73218;-54
2024/03/08 01:24:34;;;;;;;74.70;32.20;;;;;;;-7.44;100.00;100918.08;109424;1254;59638;-54
2024/03/08 01:27:03;;;;;;;61.20;30.30;;;;;;;-7.44;100.00;100918.90;109519;1251;60056;-54
2024/03/08 01:29:30;;;;;;;51.70;25.00;;;;;;;-7.42;100.00;100919.66;109560;1251;74732;-53
2024/03/08 01:32:01;;;;;;;46.50;22.20;;;;;;;-7.35;100.00;100914.54;109516;1251;65602;-59
2024/03/08 01:34:29;;;;;;;35.70;17.70;;;;;;;-7.25;100.00;100912.00;109531;1251;72826;-55
2024/03/08 01:36:57;;;;;;;43.10;19.00;;;;;;;-7.11;100.00;100913.05;109435;1253;60022;-54
2024/03/08 01:39:25;;;;;;;52.50;23.10;;;;;;;-7.01;100.00;100908.81;109509;1251;59111;-54
2024/03/08 01:41:53;;;;;;;46.90;22.70;;;;;;;-6.98;100.00;100907.16;109487;1250;74715;-54
2024/03/08 01:44:22;;;;;;;38.20;20.00;;;;;;;-7.03;100.00;100908.20;109484;1251;66245;-56
2024/03/08 01:46:51;;;;;;;41.60;20.30;;;;;;;-7.10;100.00;100908.08;109438;1251;71407;-54
2024/03/08 01:49:20;;;;;;;38.70;20.10;;;;;;;-7.11;100.00;100903.23;109453;1251;61678;-55
2024/03/08 01:51:51;;;;;;;29.40;16.00;;;;;;;-7.11;100.00;100902.20;109252;1251;205846;-54
2024/03/08 01:54:19;;;;;;;25.00;13.60;;;;;;;-7.07;100.00;100897.70;109436;1250;75280;-55
2024/03/08 01:56:47;;;;;;;26.30;14.10;;;;;;;-7.01;100.00;100891.73;109493;1251;65767;-54
2024/03/08 01:59:15;;;;;;;23.70;12.30;;;;;;;-6.93;100.00;100893.45;109640;1250;72729;-54
2024/03/08 02:01:43;;;;;;;28.80;14.50;;;;;;;-6.85;100.00;100891.16;109452;1251;59545;-54
2024/03/08 02:04:11;;;;;;;26.20;14.60;;;;;;;-6.80;100.00;100893.50;109510;1250;59387;-54
2024/03/08 02:06:38;;;;;;;26.40;14.10;;;;;;;-6.77;100.00;100892.20;109432;1251;75160;-54
2024/03/08 02:09:06;;;;;;;28.40;14.50;;;;;;;-6.73;100.00;100894.41;109451;1251;65628;-55
2024/03/08 02:11:35;;;;;;;31.50;16.40;;;;;;;-6.72;100.00;100890.34;109580;1251;71380;-54
2024/03/08 02:14:06;;;;;;;30.00;15.00;;;;;;;-6.73;100.00;100891.05;109363;1253;59362;-58
2024/03/08 02:16:34;;;;;;;31.50;15.30;;;;;;;-6.75;100.00;100893.82;109478;1251;59979;-54
2024/03/08 02:19:01;;;;;;;30.30;14.60;;;;;;;-6.77;100.00;100890.20;109511;1251;74720;-54
2024/03/08 02:21:29;;;;;;;30.50;14.80;;;;;;;-6.78;100.00;100887.18;109493;1250;66932;-56
2024/03/08 02:23:57;;;;;;;24.80;13.50;;;;;;;-6.78;100.00;100886.33;109436;1252;72850;-55
2024/03/08 02:26:24;;;;;;;31.00;12.50;;;;;;;-6.74;100.00;100891.91;109467;1251;60958;-54
2024/03/08 02:28:52;;;;;;;21.90;12.70;;;;;;;-6.64;100.00;100890.55;109467;1251;60111;-54
2024/03/08 02:31:20;;;;;;;24.60;12.50;;;;;;;-6.49;100.00;100888.97;109491;1251;74714;-54
2024/03/08 02:33:48;;;;;;;23.40;12.70;;;;;;;-6.34;100.00;100884.64;109516;1251;67023;-56
2024/03/08 02:36:16;;;;;;;26.60;12.90;;;;;;;-6.19;100.00;100884.55;109419;1253;71428;-55
2024/03/08 02:38:44;;;;;;;23.40;12.70;;;;;;;-6.05;100.00;100885.17;109489;1251;59302;-54
2024/03/08 02:41:12;;;;;;;27.70;13.70;;;;;;;-5.93;100.00;100884.50;109464;1251;60077;-55
2024/03/08 02:43:39;;;;;;;28.90;14.40;;;;;;;-5.83;100.00;100885.94;109509;1251;74686;-54
2024/03/08 02:46:07;;;;;;;30.30;14.80;;;;;;;-5.76;100.00;100886.20;109470;1251;66945;-54
2024/03/08 02:48:35;;;;;;;32.30;15.30;;;;;;;-5.72;100.00;100883.45;109432;1251;71351;-58
2024/03/08 02:51:03;;;;;;;29.00;14.40;;;;;;;-5.67;100.00;100880.70;109487;1250;58929;-54
2024/03/08 02:53:31;;;;;;;31.20;16.00;;;;;;;-5.64;100.00;100882.80;109497;1251;60095;-55
2024/03/08 02:55:59;;;;;;;32.90;16.20;;;;;;;-5.61;100.00;100884.55;109468;1251;73377;-55
2024/03/08 02:58:27;;;;;;;28.40;15.20;;;;;;;-5.59;100.00;100887.02;109491;1251;65678;-56
2024/03/08 03:00:57;;;;;;;26.80;14.70;;;;;;;-5.59;100.00;100879.90;109505;1251;71517;-55
2024/03/08 03:03:26;;;;;;;31.00;15.80;;;;;;;-5.59;100.00;100877.05;109387;1251;59370;-55
2024/03/08 03:05:55;;;;;;;29.90;16.00;;;;;;;-5.60;100.00;100875.04;109435;1251;59343;-54
2024/03/08 03:08:23;;;;;;;36.40;17.20;;;;;;;-5.59;100.00;100875.15;109455;1251;73463;-60
2024/03/08 03:10:51;;;;;;;34.40;19.60;;;;;;;-5.54;100.00;100874.77;109394;1253;67244;-55
2024/03/08 03:13:19;;;;;;;33.90;17.50;;;;;;;-5.49;100.00;100876.41;109408;1253;71428;-55
2024/03/08 03:15:47;;;;;;;36.30;17.50;;;;;;;-5.43;100.00;100877.65;109435;1252;59499;-55
2024/03/08 03:18:15;;;;;;;33.90;18.10;;;;;;;-5.37;100.00;100877.75;109459;1251;58929;-60
2024/03/08 03:20:44;;;;;;;46.20;22.00;;;;;;;-5.32;100.00;100873.65;109433;1253;72432;-55
2024/03/08 03:23:14;;;;;;;62.70;28.40;;;;;;;-5.26;100.00;100872.89;109467;1251;65404;-57
2024/03/08 03:25:43;;;;;;;59.60;29.00;;;;;;;-5.22;100.00;100874.08;109439;1253;71440;-54
2024/03/08 03:28:14;;;;;;;62.30;31.10;;;;;;;-5.18;100.00;100867.61;109445;1252;59002;-55
2024/03/08 03:30:43;;;;;;;;;;;;;;;-5.15;100.00;100864.59;109423;1251;59722;-54
2024/03/08 03:33:12;;;;;;;43.20;20.20;;;;;;;-5.11;100.00;100867.85;109451;1251;73493;-54
2024/03/08 03:35:41;;;;;;;50.00;24.60;;;;;;;-5.10;100.00;100868.79;109519;1250;67427;-55
2024/03/08 03:38:09;;;;;;;42.10;22.90;;;;;;;-5.07;100.00;100863.77;109442;1251;72641;-55
2024/03/08 03:40:39;;;;;;;41.40;21.30;;;;;;;-5.05;100.00;100864.33;109419;1251;59255;-56
2024/03/08 03:43:07;;;;;;;39.70;21.20;;;;;;;-5.02;100.00;100866.07;109529;1250;58932;-54
2024/03/08 03:45:35;;;;;;;41.70;22.50;;;;;;;-4.99;100.00;100864.75;109478;1251;74851;-55
2024/03/08 03:48:12;;;;;;;36.90;20.20;;;;;;;-4.96;100.00;100862.93;109519;1251;66921;-55
2024/03/08 03:50:40;;;;;;;33.90;18.60;;;;;;;-4.95;100.00;100862.69;109466;1251;72708;-54
2024/03/08 03:53:08;;;;;;;36.80;19.30;;;;;;;-4.92;100.00;100859.70;109511;1251;59378;-54
2024/03/08 03:55:38;;;;;;;37.30;18.90;;;;;;;-4.91;100.00;100859.96;109479;1251;59098;-55
2024/03/08 03:58:09;;;;;;;39.20;21.10;;;;;;;-4.87;100.00;100856.39;109472;1251;75127;-59
2024/03/08 04:00:38;;;;;;;96.00;52.70;;;;;;;-4.82;100.00;100859.08;109466;1251;65717;-55
2024/03/08 04:03:07;;;;;;;108.30;59.60;;;;;;;-4.78;100.00;100857.19;109446;1251;72769;-54
2024/03/08 04:05:35;;;;;;;51.50;27.80;;;;;;;-4.75;100.00;100858.38;109499;1251;59011;-54
2024/03/08 04:08:03;;;;;;;45.60;23.00;;;;;;;-4.71;100.00;100859.58;109579;1250;59078;-59
2024/03/08 04:10:31;;;;;;;36.10;20.10;;;;;;;-4.68;100.00;100857.71;109499;1251;75487;-55
2024/03/08 04:12:58;;;;;;;31.90;18.20;;;;;;;-4.66;100.00;100855.77;109505;1251;66955;-54
2024/03/08 04:15:26;;;;;;;29.90;17.90;;;;;;;-4.62;100.00;100851.89;109499;1250;70806;-55
2024/03/08 04:17:54;;;;;;;37.20;19.80;;;;;;;-4.61;100.00;100847.40;109562;1250;59449;-55
2024/03/08 04:20:22;;;;;;;39.00;20.50;;;;;;;-4.59;100.00;100847.66;109485;1250;58898;-54
2024/03/08 04:22:50;;;;;;;37.60;20.50;;;;;;;-4.57;100.00;100846.90;109545;1250;73405;-54
2024/03/08 04:25:18;;;;;;;39.00;20.10;;;;;;;-4.55;100.00;100847.11;109575;1250;66788;-54
2024/03/08 04:27:46;;;;;;;40.90;21.00;;;;;;;-4.51;100.00;100848.65;109533;1250;72764;-55
2024/03/08 04:30:14;;;;;;;39.40;19.60;;;;;;;-4.46;100.00;100852.81;109460;1251;59334;-55
2024/03/08 04:32:42;;;;;;;34.10;19.60;;;;;;;-4.43;100.00;100849.93;109445;1250;59426;-55
2024/03/08 04:35:12;;;;;;;34.90;18.70;;;;;;;-4.38;100.00;100851.60;109567;1250;74790;-55
2024/03/08 04:37:40;;;;;;;36.80;22.00;;;;;;;-4.33;100.00;100854.55;109521;1250;67379;-55
2024/03/08 04:40:08;;;;;;;38.70;19.70;;;;;;;-4.28;100.00;100854.65;109403;1251;71822;-59
2024/03/08 04:42:36;;;;;;;36.20;19.80;;;;;;;-4.23;100.00;100855.97;109516;1251;59367;-55
2024/03/08 04:45:05;;;;;;;31.40;18.90;;;;;;;-4.17;100.00;100857.70;109472;1251;60003;-54
2024/03/08 04:47:33;;;;;;;36.10;20.10;;;;;;;-4.08;100.00;100856.61;109505;1250;74697;-54
2024/03/08 04:50:00;;;;;;;37.80;22.30;;;;;;;-4.01;100.00;100853.86;109483;1251;67079;-54
2024/03/08 04:52:28;;;;;;;42.90;25.20;;;;;;;-3.94;100.00;100854.54;109403;1253;73146;-54
2024/03/08 04:54:56;;;;;;;45.90;23.20;;;;;;;-3.86;100.00;100856.84;109421;1251;59278;-54
2024/03/08 04:57:25;;;;;;;34.70;21.50;;;;;;;-3.76;100.00;100854.66;109461;1251;60116;-55
2024/03/08 04:59:53;;;;;;;33.50;20.10;;;;;;;-3.69;100.00;100859.23;109478;1251;73721;-54
2024/03/08 05:02:22;;;;;;;40.50;20.40;;;;;;;-3.62;100.00;100862.77;109416;1251;65640;-55
2024/03/08 05:04:50;;;;;;;39.00;21.60;;;;;;;-3.55;100.00;100863.33;109426;1251;72736;-54
2024/03/08 05:07:19;;;;;;;39.50;20.50;;;;;;;-3.48;100.00;100872.10;109443;1251;60430;-54
2024/03/08 05:09:51;;;;;;;44.30;22.40;;;;;;;-3.40;100.00;100873.58;109522;1250;59377;-55
2024/03/08 05:12:19;;;;;;;33.90;17.40;;;;;;;-3.35;100.00;100869.91;109471;1253;74709;-56
2024/03/08 05:14:49;;;;;;;36.40;19.00;;;;;;;-3.30;100.00;100867.27;109520;1253;65643;-55
2024/03/08 05:17:17;;;;;;;34.50;19.40;;;;;;;-3.23;100.00;100865.07;109524;1251;71241;-54
2024/03/08 05:19:45;;;;;;;28.10;14.70;;;;;;;-3.16;100.00;100869.27;109470;1251;60151;-54
2024/03/08 05:22:13;;;;;;;28.30;16.30;;;;;;;-3.10;100.00;100865.23;109412;1251;59102;-55
2024/03/08 05:24:41;;;;;;;31.20;17.50;;;;;;;-3.05;100.00;100864.96;109452;1251;73842;-54
2024/03/08 05:27:08;;;;;;;32.70;17.90;;;;;;;-2.97;100.00;100863.54;109550;1251;65703;-54
2024/03/08 05:29:37;;;;;;;34.30;17.80;;;;;;;-2.89;100.00;100865.81;109498;1251;71471;-54
2024/03/08 05:32:06;;;;;;;28.70;17.50;;;;;;;-2.81;100.00;100866.08;109472;1251;59232;-54
2024/03/08 05:34:34;;;;;;;29.90;17.10;;;;;;;-2.73;100.00;100866.83;109511;1251;59039;-53
2024/03/08 05:37:02;;;;;;;29.50;16.80;;;;;;;-2.62;100.00;100868.27;109526;1250;73455;-53
2024/03/08 05:39:30;;;;;;;29.40;17.90;;;;;;;-2.53;100.00;100863.36;109522;1251;67073;-55
2024/03/08 05:41:57;;;;;;;30.60;16.60;;;;;;;-2.46;100.00;100856.49;109480;1251;72696;-60
2024/03/08 05:44:28;;;;;;;31.30;18.40;;;;;;;-2.36;100.00;100856.77;109416;1251;60579;-54
2024/03/08 05:46:56;;;;;;;36.50;18.40;;;;;;;-2.24;100.00;100855.62;109488;1251;58977;-55
2024/03/08 05:49:24;;;;;;;32.90;18.70;;;;;;;-2.12;100.00;100859.90;109499;1251;73787;-55
2024/03/08 05:51:54;;;;;;;31.60;17.50;;;;;;;-2.00;100.00;100854.60;109471;1251;67230;-59
2024/03/08 05:54:24;;;;;;;29.50;16.70;;;;;;;-1.87;100.00;100855.56;109497;1251;72795;-54
2024/03/08 05:56:52;;;;;;;34.20;22.90;;;;;;;-1.77;100.00;100851.05;109453;1253;59054;-54
2024/03/08 05:59:23;;;;;;;34.70;22.40;;;;;;;-1.65;100.00;100850.36;109532;1250;60131;-54
2024/03/08 06:01:51;;;;;;;36.40;22.10;;;;;;;-1.56;100.00;100850.34;109506;1250;75105;-55
2024/03/08 06:04:19;;;;;;;30.20;19.90;;;;;;;-1.50;100.00;100847.59;109462;1251;67428;-55
2024/03/08 06:06:46;;;;;;;28.70;18.10;;;;;;;-1.43;100.00;100843.74;109453;1251;74779;-56
2024/03/08 06:09:22;;;;;;;26.80;16.10;;;;;;;-1.32;100.00;100839.36;109497;1251;59768;-55
2024/03/08 06:11:53;;;;;;;25.10;15.00;;;;;;;-1.21;100.00;100840.26;109443;1251;59468;-55
2024/03/08 06:14:23;;;;;;;24.30;14.80;;;;;;;-1.15;100.00;100840.02;109512;1251;74705;-55
2024/03/08 06:16:51;;;;;;;26.60;14.70;;;;;;;-1.07;100.00;100840.92;109492;1251;65978;-55
2024/03/08 06:19:18;;;;;;;24.80;15.00;;;;;;;-0.99;100.00;100841.96;109480;1250;71415;-55
2024/03/08 06:21:46;;;;;;;28.40;14.50;;;;;;;-0.91;100.00;100842.48;109390;1251;58985;-61
2024/03/08 06:24:14;;;;;;;26.50;14.90;;;;;;;-0.81;100.00;100838.61;109456;1251;60109;-54
2024/03/08 06:26:42;;;;;;;24.50;14.50;;;;;;;-0.73;100.00;100833.20;109454;1251;75027;-55
2024/03/08 06:29:10;;;;;;;27.20;15.50;;;;;;;-0.69;100.00;100829.19;109534;1253;65376;-55
2024/03/08 06:31:38;;;;;;;25.80;16.50;;;;;;;-0.60;100.00;100828.08;109450;1251;71377;-59
2024/03/08 06:34:10;;;;;;;27.10;14.40;;;;;;;-0.47;100.00;100825.20;109439;1251;61191;-55
2024/03/08 06:36:38;;;;;;;26.70;14.70;;;;;;;-0.31;100.00;100827.29;109485;1251;59024;-55
2024/03/08 06:39:09;;;;;;;26.40;15.90;;;;;;;-0.19;100.00;100823.77;109542;1251;73448;-55
2024/03/08 06:41:37;;;;;;;;;;;;;;;-0.09;100.00;100823.45;109464;1251;65620;-59
2024/03/08 06:44:07;;;;;;;26.30;15.80;;;;;;;0.01;100.00;100822.80;109520;1251;71559;-55
2024/03/08 06:46:34;;;;;;;27.60;16.20;;;;;;;0.07;100.00;100824.08;109472;1250;59344;-55
2024/03/08 06:49:03;;;;;;;25.50;15.20;;;;;;;0.13;100.00;100817.39;109461;1251;59092;-55
2024/03/08 06:51:31;;;;;;;26.00;14.90;;;;;;;0.14;100.00;100817.95;109529;1250;74779;-55
2024/03/08 06:54:00;;;;;;;28.00;17.60;;;;;;;0.18;100.00;100817.91;109476;1251;66226;-56
2024/03/08 06:56:29;;;;;;;27.30;16.10;;;;;;;0.27;100.00;100817.51;109461;1251;74796;-56
2024/03/08 06:58:57;;;;;;;26.80;16.40;;;;;;;0.38;100.00;100815.00;109487;1251;58989;-55
2024/03/08 07:01:25;;;;;;;22.20;12.50;;;;;;;0.52;100.00;100810.14;109500;1250;59456;-55
2024/03/08 07:03:52;;;;;;;19.40;10.30;;;;;;;0.67;100.00;100802.11;109442;1255;76068;-58
2024/03/08 07:06:20;;;;;;;17.50;10.70;;;;;;;0.77;100.00;100799.84;109526;1251;66138;-55
2024/03/08 07:08:48;;;;;;;17.70;11.50;;;;;;;0.87;100.00;100797.65;109466;1251;76159;-55
2024/03/08 07:11:18;;;;;;;14.90;9.20;;;;;;;0.96;100.00;100798.36;109500;1250;59117;-55
2024/03/08 07:13:46;;;;;;;17.20;10.40;;;;;;;1.02;100.00;100799.13;109455;1250;62133;-55
2024/03/08 07:16:14;;;;;;;16.40;9.30;;;;;;;1.06;100.00;100800.91;109524;1251;73437;-55
2024/03/08 07:18:43;;;;;;;15.20;8.60;;;;;;;1.10;100.00;100797.67;109541;1250;68479;-55
2024/03/08 07:21:11;;;;;;;17.10;11.40;;;;;;;1.18;100.00;100792.37;109550;1251;72742;-55
2024/03/08 07:26:25;;;;;;;14.00;9.00;;;;;;;1.36;100.00;100792.43;109563;1250;61607;-55
2024/03/08 07:28:56;;;;;;;14.90;9.30;;;;;;;1.47;100.00;100788.58;109529;1250;76265;-55
2024/03/08 07:31:44;;;;;;;14.90;8.50;;;;;;;1.57;100.00;100782.16;109540;1251;66141;-58
2024/03/08 07:34:12;;;;;;;14.80;9.00;;;;;;;1.67;100.00;100786.70;109542;1251;74206;-55
2024/03/08 07:36:40;;;;;;;14.70;10.20;;;;;;;1.77;100.00;100784.02;109512;1251;62492;-55
2024/03/08 07:39:11;;;;;;;13.10;9.10;;;;;;;1.82;100.00;100783.95;109464;1251;60946;-56
2024/03/08 07:41:42;;;;;;;14.60;8.70;;;;;;;1.85;100.00;100781.17;109497;1251;76652;-55
2024/03/08 07:44:10;;;;;;;14.60;8.20;;;;;;;1.86;100.00;100780.88;109568;1251;68955;-55
2024/03/08 07:46:38;;;;;;;15.40;8.40;;;;;;;1.88;100.00;100782.34;109496;1251;72678;-56
2024/03/08 07:49:06;;;;;;;14.50;8.50;;;;;;;1.91;100.00;100783.60;109431;1251;62285;-55
2024/03/08 07:51:34;;;;;;;15.30;9.50;;;;;;;1.95;100.00;100781.44;109477;1251;62141;-53
2024/03/08 07:54:04;;;;;;;17.80;11.60;;;;;;;1.90;100.00;100779.77;109584;1250;75794;-54
2024/03/08 07:56:32;;;;;;;13.80;9.10;;;;;;;1.86;100.00;100781.23;109566;1250;68071;-54
2024/03/08 07:59:00;;;;;;;15.60;9.80;;;;;;;1.87;100.00;100776.89;109547;1251;75283;-56
2024/03/08 08:01:28;;;;;;;16.40;10.20;;;;;;;1.88;100.00;100772.68;109445;1251;61223;-54
2024/03/08 08:03:56;;;;;;;13.30;8.70;;;;;;;1.98;100.00;100775.23;109484;1251;60949;-55
2024/03/08 08:06:25;;;;;;;17.30;8.40;;;;;;;2.06;100.00;100774.23;109516;1250;76238;-54
2024/03/08 08:08:53;;;;;;;15.00;8.60;;;;;;;2.15;100.00;100774.73;109549;1250;68890;-55
2024/03/08 08:11:21;;;;;;;14.10;8.80;;;;;;;2.22;100.00;100766.91;109465;1250;74731;-54
2024/03/08 08:13:48;;;;;;;13.10;8.60;;;;;;;2.27;100.00;100762.23;109439;1254;61330;-55
2024/03/08 08:16:16;;;;;;;11.70;7.50;;;;;;;2.36;100.00;100762.88;109481;1250;62804;-54
2024/03/08 08:18:46;;;;;;;13.10;7.90;;;;;;;2.49;100.00;100758.45;109564;1250;76735;-54
2024/03/08 08:21:13;;;;;;;13.80;8.60;;;;;;;2.62;100.00;100757.94;109523;1250;69370;-59
2024/03/08 08:23:41;;;;;;;14.70;8.60;;;;;;;2.73;100.00;100758.33;109459;1250;74010;-54
2024/03/08 08:26:11;;;;;;;15.10;9.00;;;;;;;2.83;100.00;100752.70;109481;1251;60113;-54
2024/03/08 08:28:40;;;;;;;17.80;9.70;;;;;;;2.88;100.00;100752.83;109489;1251;61665;-55
2024/03/08 08:31:08;;;;;;;16.40;9.00;;;;;;;2.81;99.57;100758.55;109293;1251;77037;-58
2024/03/08 08:33:36;;;;;;;17.00;8.80;;;;;;;2.74;98.99;100755.49;109475;1251;69775;-56
2024/03/08 08:36:04;;;;;;;13.50;9.10;;;;;;;2.78;99.93;100756.54;109485;1251;75826;-55
2024/03/08 08:38:32;;;;;;;13.20;8.60;;;;;;;2.87;99.24;100747.60;109517;1251;60324;-55
2024/03/08 08:41:02;;;;;;;14.00;8.30;;;;;;;2.96;97.60;100748.77;109536;1251;63156;-56
2024/03/08 08:43:30;;;;;;;14.70;8.90;;;;;;;3.03;95.23;100750.95;109435;1253;76884;-55
2024/03/08 08:45:58;;;;;;;13.10;8.10;;;;;;;3.07;92.58;100754.27;109511;1251;68979;-56
2024/03/08 08:48:26;;;;;;;12.90;8.00;;;;;;;3.11;91.13;100749.30;109466;1251;74798;-55
2024/03/08 08:50:53;;;;;;;14.20;8.50;;;;;;;3.19;90.04;100748.15;109428;1252;61780;-55
2024/03/08 08:53:21;;;;;;;12.70;8.30;;;;;;;3.27;87.95;100746.50;109460;1251;62109;-55
2024/03/08 08:55:49;;;;;;;14.00;8.40;;;;;;;3.32;86.58;100745.60;109474;1251;76830;-55
2024/03/08 08:58:18;;;;;;;14.10;9.20;;;;;;;3.42;85.77;100744.38;109528;1251;69174;-55
2024/03/08 09:00:46;;;;;;;14.00;8.90;;;;;;;3.49;84.01;100743.66;109492;1251;74650;-55
2024/03/08 09:03:14;;;;;;;15.30;8.60;;;;;;;3.54;82.57;100740.96;109466;1251;61114;-59
2024/03/08 09:05:42;;;;;;;13.50;8.50;;;;;;;3.61;82.28;100738.66;109463;1251;60215;-56
2024/03/08 09:08:12;;;;;;;13.70;8.50;;;;;;;3.66;80.24;100733.84;109537;1251;76879;-56
2024/03/08 09:10:40;;;;;;;14.30;8.80;;;;;;;3.70;79.90;100734.24;109481;1251;67050;-56
2024/03/08 09:13:10;;;;;;;13.10;9.00;;;;;;;3.71;76.41;100734.30;109428;1251;72956;-56
2024/03/08 09:15:45;;;;;;;13.40;8.40;;;;;;;3.57;75.19;100732.86;109390;1251;61038;-56
2024/03/08 09:18:13;;;;;;;15.60;9.00;;;;;;;3.53;75.52;100730.80;109455;1251;62900;-55
2024/03/08 09:20:41;;;;;;;12.60;8.30;;;;;;;3.47;74.41;100730.05;109491;1251;75762;-55
2024/03/08 09:23:08;;;;;;;17.50;11.30;;;;;;;3.38;75.32;100730.95;109469;1251;67794;-54
2024/03/08 09:25:37;;;;;;;14.00;9.50;;;;;;;3.38;76.37;100730.77;109469;1251;73974;-55
2024/03/08 09:28:05;;;;;;;14.10;8.50;;;;;;;3.44;76.61;100731.91;109427;1251;61766;-55
2024/03/08 09:30:35;;;;;;;12.50;8.00;;;;;;;3.45;75.71;100728.38;109476;1251;62101;-56
2024/03/08 09:33:02;;;;;;;14.30;8.60;;;;;;;3.49;76.08;100730.44;109400;1251;75644;-54
2024/03/08 09:35:30;;;;;;;15.20;9.30;;;;;;;3.54;76.07;100725.88;109414;1255;69332;-59
2024/03/08 09:37:58;;;;;;;15.00;9.10;;;;;;;3.61;75.80;100726.80;109430;1251;74925;-55
2024/03/08 09:40:27;;;;;;;16.40;9.00;;;;;;;3.65;74.42;100724.58;109466;1251;59990;-55
2024/03/08 09:42:57;;;;;;;14.10;8.30;;;;;;;3.65;74.29;100722.90;109528;1251;62087;-54
2024/03/08 09:45:25;;;;;;;14.40;8.80;;;;;;;3.70;74.96;100722.86;109433;1250;77933;-59
2024/03/08 09:47:54;;;;;;;15.10;9.30;;;;;;;3.77;75.12;100718.16;109466;1251;69034;-54
2024/03/08 09:50:22;;;;;;;13.90;8.80;;;;;;;3.81;73.59;100715.90;109487;1251;75279;-55
2024/03/08 09:52:50;;;;;;;14.30;8.70;;;;;;;3.74;71.70;100718.58;109427;1251;60410;-55
2024/03/08 09:55:21;;;;;;;18.30;11.00;;;;;;;3.68;72.42;100713.58;109471;1250;62146;-59
2024/03/08 09:58:17;;;;;;;15.70;10.60;;;;;;;3.64;71.66;100709.58;109461;1251;74826;-55
2024/03/08 10:00:42;;;;;;;13.40;8.70;;;;;;;3.59;73.41;100707.95;109440;1251;69399;-55
2024/03/08 10:03:10;;;;;;;15.10;9.00;;;;;;;3.63;74.48;100709.10;109369;1251;73542;-55
2024/03/08 10:05:41;;;;;;;;;;;;;;;3.74;74.48;100705.86;109524;1251;59321;-55
2024/03/08 10:08:09;;;;;;;14.70;8.80;;;;;;;3.78;72.64;100702.77;109424;1254;61860;-55
2024/03/08 10:10:37;;;;;;;14.10;8.80;;;;;;;3.78;71.73;100701.61;109500;1251;76781;-56
2024/03/08 10:13:09;;;;;;;15.60;9.10;;;;;;;3.76;71.04;100702.29;109450;1251;70168;-55
2024/03/08 10:15:38;;;;;;;12.90;8.00;;;;;;;3.72;71.01;100701.92;109399;1253;75023;-54
2024/03/08 10:18:06;;;;;;;13.70;9.00;;;;;;;3.72;71.65;100701.05;109445;1251;60331;-55
2024/03/08 10:20:34;;;;;;;13.80;8.00;;;;;;;3.77;71.93;100699.62;109471;1251;62267;-55
2024/03/08 10:23:04;;;;;;;14.10;8.30;;;;;;;3.86;71.31;100694.38;109456;1256;77314;-55
2024/03/08 10:25:38;;;;;;;15.30;8.60;;;;;;;3.92;70.82;100693.02;109492;1251;67942;-55
2024/03/08 10:28:07;;;;;;;12.30;8.00;;;;;;;3.98;70.44;100690.92;109479;1253;73771;-55
2024/03/08 10:30:34;;;;;;;15.60;9.70;;;;;;;3.98;69.08;100686.80;109469;1251;60801;-56
2024/03/08 10:33:05;;;;;;;13.50;8.80;;;;;;;3.97;69.48;100686.19;109462;1251;62436;-54
2024/03/08 10:35:33;;;;;;;16.40;9.70;;;;;;;3.96;68.73;100682.13;109379;1251;74194;-54
2024/03/08 10:38:03;;;;;;;14.60;8.70;;;;;;;3.94;68.76;100678.02;109484;1250;69296;-55
2024/03/08 10:40:31;;;;;;;14.70;9.20;;;;;;;3.98;68.92;100678.01;109464;1251;75902;-55
2024/03/08 10:42:59;;;;;;;14.20;8.00;;;;;;;4.00;67.73;100681.19;109473;1251;59255;-55
2024/03/08 10:45:33;;;;;;;12.40;7.10;;;;;;;3.97;66.50;100672.60;109495;1251;62143;-54
2024/03/08 10:48:05;;;;;;;13.80;8.50;;;;;;;3.93;65.81;100670.23;109462;1253;76787;-54
2024/03/08 10:50:34;;;;;;;14.30;8.00;;;;;;;3.91;66.27;100668.67;109447;1251;67850;-59
2024/03/08 10:53:03;;;;;;;14.20;7.90;;;;;;;3.94;67.00;100666.17;109445;1251;75374;-55
2024/03/08 10:55:30;;;;;;;10.90;7.40;;;;;;;4.00;67.69;100666.70;109485;1251;60293;-54
2024/03/08 10:57:58;;;;;;;12.00;7.90;;;;;;;4.10;67.02;100664.30;109472;1250;60918;-56
2024/03/08 11:00:26;;;;;;;13.70;8.10;;;;;;;4.12;65.38;100663.56;109438;1250;76813;-58
2024/03/08 11:02:55;;;;;;;16.30;8.50;;;;;;;4.13;65.17;100665.56;109354;1250;67802;-55
2024/03/08 11:05:38;;;;;;;11.40;7.30;;;;;;;4.18;64.75;100662.45;109503;1251;75706;-54
2024/03/08 11:08:14;;;;;;;14.40;8.00;;;;;;;4.23;64.38;100660.23;109460;1253;60213;-56
2024/03/08 11:10:51;;;;;;;;;;;;;;;4.29;64.32;100656.30;109505;1250;61007;-55